Time;durP1;ratioP1;P1;durP2;ratioP2;P2;SDS_P1;SDS_P2;PMS_P1;PMS_P2;Temp;Humidity;BMP_temperature;BMP_pressure;BME280_temperature;BME280_humidity;BME280_pressure;Samples;Min_cycle;Max_cycle;Signal;HPM_P1;HPM_P2
2022/01/15 00:00:36;;;;;;;34.47;21.17;;;2.60;99.90;;;;;;5074071;28;20204;-63
2022/01/15 00:03:07;;;;;;;30.67;17.87;;;2.60;99.90;;;;;;5074518;28;20186;-64
2022/01/15 00:05:34;;;;;;;34.00;18.77;;;2.60;99.90;;;;;;5072564;28;20201;-64
2022/01/15 00:08:01;;;;;;;30.83;18.33;;;2.60;99.90;;;;;;5073797;28;20174;-64
2022/01/15 00:10:29;;;;;;;35.27;19.40;;;2.60;99.90;;;;;;5072482;28;20181;-64
2022/01/15 00:13:00;;;;;;;33.53;19.40;;;2.60;99.90;;;;;;5072523;28;20209;-64
2022/01/15 00:15:30;;;;;;;31.93;19.93;;;2.70;99.90;;;;;;5073683;28;20565;-64
2022/01/15 00:18:02;;;;;;;32.37;18.20;;;2.60;99.90;;;;;;5073443;28;20231;-64
2022/01/15 00:20:29;;;;;;;32.50;18.63;;;2.60;99.90;;;;;;5073545;28;20674;-64
2022/01/15 00:22:57;;;;;;;31.57;18.10;;;2.60;99.90;;;;;;5073442;28;20219;-64
2022/01/15 00:25:24;;;;;;;29.80;18.03;;;2.60;99.90;;;;;;5073531;28;20642;-64
2022/01/15 00:27:51;;;;;;;30.20;17.57;;;2.60;99.90;;;;;;5072177;28;20196;-64
2022/01/15 00:30:18;;;;;;;31.20;19.10;;;2.60;99.90;;;;;;5073628;28;20183;-64
2022/01/15 00:32:44;;;;;;;31.57;18.30;;;2.70;99.90;;;;;;5073989;28;20174;-64
2022/01/15 00:35:13;;;;;;;31.73;18.73;;;2.70;99.90;;;;;;5075650;28;20276;-64
2022/01/15 00:37:39;;;;;;;31.47;18.43;;;2.70;99.90;;;;;;5075131;28;20216;-64
2022/01/15 00:40:08;;;;;;;29.97;17.73;;;2.70;99.90;;;;;;5073736;28;20249;-64
2022/01/15 00:42:35;;;;;;;32.17;18.77;;;2.70;99.90;;;;;;5073453;28;20173;-65
2022/01/15 00:45:03;;;;;;;25.40;18.27;;;2.70;99.90;;;;;;5073382;28;20243;-64
2022/01/15 00:47:31;;;;;;;27.30;17.77;;;2.70;99.90;;;;;;5072183;28;20548;-64
2022/01/15 00:50:01;;;;;;;24.93;16.90;;;2.70;99.90;;;;;;5074538;28;20252;-64
2022/01/15 00:52:28;;;;;;;35.60;19.00;;;2.70;99.90;;;;;;5073238;28;20647;-64
2022/01/15 00:54:54;;;;;;;35.93;19.20;;;2.70;99.90;;;;;;5074675;28;20682;-64
2022/01/15 00:57:21;;;;;;;28.57;17.73;;;2.70;99.90;;;;;;5073470;28;20197;-64
2022/01/15 00:59:47;;;;;;;27.93;17.67;;;2.70;99.90;;;;;;5073734;28;20205;-64
2022/01/15 01:02:14;;;;;;;28.00;17.60;;;2.70;99.90;;;;;;5073448;28;20507;-64
2022/01/15 01:04:39;;;;;;;33.13;21.07;;;2.70;99.90;;;;;;5073052;28;20194;-64
2022/01/15 01:07:05;;;;;;;37.73;20.23;;;2.70;99.90;;;;;;5073373;28;20174;-64
2022/01/15 01:09:53;;;;;;;32.97;18.43;;;2.70;99.90;;;;;;5073100;28;20182;-64
2022/01/15 01:12:29;;;;;;;30.63;18.63;;;2.70;99.90;;;;;;5072858;28;20257;-64
2022/01/15 01:23:02;;;;;;;32.57;18.97;;;2.70;99.90;;;;;;5073111;28;20157;-64
2022/01/15 01:25:35;;;;;;;33.77;18.67;;;2.70;99.90;;;;;;5072754;28;20190;-65
2022/01/15 01:28:14;;;;;;;28.50;18.37;;;2.70;99.90;;;;;;5073030;28;20216;-64
2022/01/15 01:30:50;;;;;;;26.30;17.57;;;2.70;99.90;;;;;;5073435;28;20157;-64
2022/01/15 01:35:59;;;;;;;29.90;18.03;;;2.70;99.90;;;;;;5076736;28;20669;-64
2022/01/15 01:38:30;;;;;;;29.20;17.63;;;2.70;99.90;;;;;;5076520;28;20181;-65
2022/01/15 01:40:58;;;;;;;35.10;18.93;;;2.70;99.90;;;;;;5076631;28;20678;-64
2022/01/15 01:46:08;;;;;;;30.83;18.20;;;2.80;99.90;;;;;;5076280;28;20192;-64
2022/01/15 01:48:34;;;;;;;30.37;17.97;;;2.80;99.90;;;;;;5076564;28;20645;-64
2022/01/15 01:51:00;;;;;;;35.27;18.60;;;2.80;99.90;;;;;;5076134;28;20170;-64
2022/01/15 01:53:26;;;;;;;26.93;16.20;;;2.80;99.90;;;;;;5076223;28;20196;-64
2022/01/15 01:55:51;;;;;;;30.33;19.00;;;2.80;99.90;;;;;;5074844;28;20292;-65
2022/01/15 01:58:17;;;;;;;33.70;19.57;;;2.80;99.90;;;;;;5076182;28;20198;-63
2022/01/15 02:00:43;;;;;;;31.37;18.37;;;2.80;99.90;;;;;;5075965;28;20178;-64
2022/01/15 02:03:08;;;;;;;30.10;18.27;;;2.80;99.90;;;;;;5075990;28;20174;-64
2022/01/15 02:05:34;;;;;;;36.13;19.30;;;2.80;99.90;;;;;;5075966;28;20202;-64
2022/01/15 02:08:00;;;;;;;34.43;18.43;;;2.80;99.90;;;;;;5075920;28;20177;-64
2022/01/15 02:10:26;;;;;;;40.70;20.73;;;2.80;99.90;;;;;;5076069;28;20177;-64
2022/01/15 02:12:54;;;;;;;38.33;19.63;;;2.70;99.90;;;;;;5075901;28;20177;-64
2022/01/15 02:15:22;;;;;;;34.97;19.60;;;2.70;99.90;;;;;;5075668;28;20598;-64
2022/01/15 02:17:49;;;;;;;34.70;18.70;;;2.70;99.90;;;;;;5075696;28;20197;-64
2022/01/15 02:20:48;;;;;;;35.30;18.77;;;2.80;99.90;;;;;;5075995;28;20162;-64
2022/01/15 02:25:58;;;;;;;35.97;19.90;;;2.70;99.90;;;;;;5075625;28;20243;-64
2022/01/15 02:28:28;;;;;;;36.27;20.20;;;2.70;99.90;;;;;;5075548;28;20170;-64
2022/01/15 02:30:55;;;;;;;40.20;20.97;;;2.70;99.90;;;;;;5076024;28;20634;-64
2022/01/15 02:33:22;;;;;;;47.13;22.77;;;2.80;99.90;;;;;;5075314;28;20190;-64
2022/01/15 02:35:48;;;;;;;46.57;21.93;;;2.70;99.90;;;;;;5075520;28;20198;-64
2022/01/15 02:38:14;;;;;;;41.63;21.50;;;2.60;99.90;;;;;;5073899;28;20278;-64
2022/01/15 02:40:39;;;;;;;38.90;19.60;;;2.60;99.90;;;;;;5075412;28;20201;-64
2022/01/15 02:43:09;;;;;;;35.00;18.93;;;2.60;99.90;;;;;;5074014;28;20657;-63
2022/01/15 02:45:37;;;;;;;38.17;19.83;;;2.60;99.90;;;;;;5073854;28;20232;-64
2022/01/15 02:48:13;;;;;;;35.10;20.17;;;2.70;99.90;;;;;;5075150;28;20203;-63
2022/01/15 02:50:41;;;;;;;39.63;20.73;;;2.70;99.90;;;;;;5075239;28;20165;-63
2022/01/15 02:53:08;;;;;;;39.37;21.57;;;2.70;99.90;;;;;;5075075;28;20177;-64
2022/01/15 02:55:34;;;;;;;35.63;18.90;;;2.70;99.90;;;;;;5074908;28;20194;-64
2022/01/15 02:57:59;;;;;;;37.40;20.87;;;2.80;99.90;;;;;;5075147;28;20253;-67
2022/01/15 03:00:28;;;;;;;39.77;19.83;;;2.70;99.90;;;;;;5075166;28;20260;-67
2022/01/15 03:02:53;;;;;;;36.23;19.80;;;2.80;99.90;;;;;;5074757;28;20174;-68
2022/01/15 03:05:22;;;;;;;39.10;22.23;;;2.80;99.90;;;;;;5074813;28;20194;-67
2022/01/15 03:07:48;;;;;;;35.43;19.63;;;2.80;99.90;;;;;;5074646;28;20188;-67
2022/01/15 03:10:14;;;;;;;38.87;20.60;;;2.80;99.90;;;;;;5074851;28;20178;-67
2022/01/15 03:12:40;;;;;;;38.57;20.47;;;2.80;99.90;;;;;;5074919;28;20545;-67
2022/01/15 03:15:07;;;;;;;36.57;21.30;;;2.80;99.90;;;;;;5074840;28;20243;-67
2022/01/15 03:17:33;;;;;;;36.57;21.03;;;2.80;99.90;;;;;;5074473;28;20197;-67
2022/01/15 03:20:00;;;;;;;40.37;21.93;;;2.80;99.90;;;;;;5074555;28;20223;-68
2022/01/15 03:22:25;;;;;;;35.17;20.30;;;2.80;99.90;;;;;;5073116;28;20184;-67
2022/01/15 03:24:51;;;;;;;35.73;20.83;;;2.80;99.90;;;;;;5074326;28;20284;-67
2022/01/15 03:27:21;;;;;;;31.37;19.37;;;2.80;99.90;;;;;;5072861;28;20232;-67
2022/01/15 03:29:47;;;;;;;31.57;18.23;;;2.80;99.90;;;;;;5073006;28;20634;-67
2022/01/15 03:32:12;;;;;;;34.87;17.80;;;2.80;99.90;;;;;;5072940;28;20239;-67
2022/01/15 03:34:38;;;;;;;31.73;18.67;;;2.80;99.90;;;;;;5074488;28;20250;-67
2022/01/15 03:37:04;;;;;;;36.87;19.27;;;2.90;99.90;;;;;;5072805;28;20272;-67
2022/01/15 03:39:30;;;;;;;31.60;19.33;;;2.90;99.90;;;;;;5074176;28;20250;-67
2022/01/15 03:41:55;;;;;;;34.30;20.30;;;2.90;99.90;;;;;;5074045;28;20170;-67
2022/01/15 03:44:21;;;;;;;28.27;18.80;;;2.90;99.90;;;;;;5074184;28;20651;-67
2022/01/15 03:46:47;;;;;;;34.77;19.23;;;2.90;99.90;;;;;;5074249;28;20201;-67
2022/01/15 03:49:12;;;;;;;34.63;19.70;;;2.90;99.90;;;;;;5074053;28;20177;-67
2022/01/15 03:51:38;;;;;;;32.13;18.60;;;2.90;99.90;;;;;;5074115;28;20255;-68
2022/01/15 03:54:04;;;;;;;32.30;18.17;;;2.90;99.90;;;;;;5074226;28;20539;-67
2022/01/15 03:56:32;;;;;;;34.20;19.00;;;2.90;99.90;;;;;;5073715;28;20182;-67
2022/01/15 03:58:58;;;;;;;30.57;17.97;;;2.90;99.90;;;;;;5073871;28;20197;-67
2022/01/15 04:01:24;;;;;;;27.20;17.77;;;2.90;99.90;;;;;;5073304;28;20235;-68
2022/01/15 04:03:49;;;;;;;24.13;16.27;;;2.90;99.90;;;;;;5074319;28;20261;-67
2022/01/15 04:06:15;;;;;;;22.90;14.97;;;2.90;99.90;;;;;;5073637;28;20178;-67
2022/01/15 04:08:41;;;;;;;22.83;15.30;;;2.90;99.90;;;;;;5073716;28;20552;-67
2022/01/15 04:11:06;;;;;;;21.00;13.87;;;2.90;99.90;;;;;;5073726;28;20231;-67
2022/01/15 04:13:32;;;;;;;16.90;11.80;;;2.90;99.90;;;;;;5073745;28;20173;-67
2022/01/15 04:16:00;;;;;;;15.90;10.90;;;2.90;99.90;;;;;;5073540;28;20280;-67
2022/01/15 04:18:28;;;;;;;15.37;11.47;;;2.90;99.90;;;;;;5073617;28;20197;-67
2022/01/15 04:20:56;;;;;;;12.40;10.07;;;2.90;99.90;;;;;;5072496;28;20174;-68
2022/01/15 04:23:22;;;;;;;11.97;10.03;;;2.80;99.90;;;;;;5073474;28;20166;-69
2022/01/15 04:25:48;;;;;;;11.27;9.97;;;2.80;99.90;;;;;;5073186;28;20591;-68
2022/01/15 04:28:13;;;;;;;12.93;10.33;;;2.80;99.90;;;;;;5073009;28;20189;-67
2022/01/15 04:30:41;;;;;;;12.97;10.20;;;2.80;99.90;;;;;;5073739;28;20169;-67
2022/01/15 04:33:07;;;;;;;16.30;11.27;;;2.80;99.90;;;;;;5073719;28;20633;-67
2022/01/15 04:35:33;;;;;;;14.37;10.63;;;2.70;99.90;;;;;;5073269;28;20288;-67
2022/01/15 04:38:07;;;;;;;12.60;10.50;;;2.70;99.90;;;;;;5073557;28;20221;-67
2022/01/15 04:40:33;;;;;;;11.57;10.23;;;2.70;99.90;;;;;;5073345;28;20158;-67
2022/01/15 04:42:59;;;;;;;13.87;11.10;;;2.70;99.90;;;;;;5073234;28;20210;-67
2022/01/15 04:45:25;;;;;;;13.73;10.77;;;2.70;99.90;;;;;;5073473;28;20206;-67
2022/01/15 04:47:50;;;;;;;14.10;10.97;;;2.70;99.90;;;;;;5073312;28;20181;-68
2022/01/15 04:50:17;;;;;;;12.67;10.87;;;2.70;99.90;;;;;;5073156;28;20638;-67
2022/01/15 04:52:43;;;;;;;12.33;10.03;;;2.60;99.90;;;;;;5073761;28;20174;-68
2022/01/15 04:55:10;;;;;;;15.40;12.30;;;2.60;99.90;;;;;;5073216;28;20201;-67
2022/01/15 04:57:37;;;;;;;13.40;10.50;;;2.60;99.90;;;;;;5072902;28;20208;-67
2022/01/15 05:00:09;;;;;;;15.93;11.30;;;2.60;99.90;;;;;;5073581;28;20177;-67
2022/01/15 05:02:35;;;;;;;15.73;11.23;;;2.60;99.90;;;;;;5073793;28;20568;-67
2022/01/15 05:05:02;;;;;;;17.43;12.70;;;2.60;99.90;;;;;;5072998;28;20564;-67
2022/01/15 05:07:28;;;;;;;16.97;11.83;;;2.60;99.90;;;;;;5075207;28;20162;-67
2022/01/15 05:09:53;;;;;;;21.10;13.57;;;2.60;99.90;;;;;;5076832;28;20188;-67
2022/01/15 05:12:39;;;;;;;19.47;13.77;;;2.60;99.90;;;;;;5077326;28;20181;-67
2022/01/15 05:15:05;;;;;;;18.70;13.23;;;2.60;99.90;;;;;;5075673;28;20687;-67
2022/01/15 05:17:31;;;;;;;18.03;12.57;;;2.60;99.90;;;;;;5076572;28;20202;-67
2022/01/15 05:19:57;;;;;;;21.43;14.67;;;2.60;99.90;;;;;;5076654;28;20249;-67
2022/01/15 05:22:23;;;;;;;20.00;13.63;;;2.60;99.90;;;;;;5076892;28;20202;-67
2022/01/15 05:24:48;;;;;;;19.27;13.73;;;2.50;99.90;;;;;;5077004;28;20193;-67
2022/01/15 05:27:14;;;;;;;16.70;12.73;;;2.50;99.90;;;;;;5076441;28;20260;-67
2022/01/15 05:29:40;;;;;;;16.73;12.77;;;2.50;99.90;;;;;;5076418;28;20206;-67
2022/01/15 05:32:06;;;;;;;18.10;12.67;;;2.50;99.90;;;;;;5076418;28;20176;-67
2022/01/15 05:34:32;;;;;;;17.30;12.63;;;2.50;99.90;;;;;;5076215;28;20193;-67
2022/01/15 05:36:58;;;;;;;19.90;11.63;;;2.50;99.90;;;;;;5076199;28;20170;-67
2022/01/15 05:39:24;;;;;;;19.03;12.73;;;2.50;99.90;;;;;;5076237;28;20177;-67
2022/01/15 05:41:49;;;;;;;17.20;12.43;;;2.50;99.90;;;;;;5074910;28;20292;-67
2022/01/15 05:44:15;;;;;;;15.40;11.93;;;2.40;99.90;;;;;;5076037;28;20194;-67
2022/01/15 05:46:41;;;;;;;17.80;11.83;;;2.40;99.90;;;;;;5074814;28;20181;-67
2022/01/15 05:49:07;;;;;;;17.07;11.10;;;2.40;99.90;;;;;;5076080;28;20178;-67
2022/01/15 05:51:32;;;;;;;14.00;10.30;;;2.40;99.90;;;;;;5076083;28;20181;-67
2022/01/15 05:54:10;;;;;;;13.53;10.00;;;2.40;99.90;;;;;;5075987;28;20174;-67
2022/01/15 05:56:37;;;;;;;14.03;10.07;;;2.30;99.90;;;;;;5076257;28;20239;-67
2022/01/15 05:59:04;;;;;;;17.20;11.17;;;2.30;99.90;;;;;;5075936;28;20217;-67
2022/01/15 06:01:30;;;;;;;14.90;10.67;;;2.30;99.90;;;;;;5076419;28;20169;-67
2022/01/15 06:03:55;;;;;;;11.77;10.50;;;2.30;99.90;;;;;;5076366;28;20183;-66
2022/01/15 06:06:21;;;;;;;15.33;11.60;;;2.30;99.90;;;;;;5075943;28;20215;-67
2022/01/15 06:08:47;;;;;;;16.13;11.23;;;2.30;99.90;;;;;;5076278;28;20185;-67
2022/01/15 06:11:17;;;;;;;14.00;10.43;;;2.20;99.90;;;;;;5075785;28;20173;-67
2022/01/15 06:13:47;;;;;;;11.97;10.43;;;2.20;99.90;;;;;;5075671;28;20162;-66
2022/01/15 06:16:13;;;;;;;14.00;10.70;;;2.20;99.90;;;;;;5075471;28;20197;-67
2022/01/15 06:18:39;;;;;;;12.73;10.23;;;2.10;99.90;;;;;;5073521;28;20197;-67
2022/01/15 06:21:05;;;;;;;13.43;9.80;;;2.10;99.90;;;;;;5075838;28;20181;-67
2022/01/15 06:23:31;;;;;;;15.33;10.67;;;2.10;99.90;;;;;;5074152;28;20554;-66
2022/01/15 06:25:57;;;;;;;11.97;9.90;;;2.10;99.90;;;;;;5075715;28;20205;-67
2022/01/15 06:28:23;;;;;;;13.40;10.37;;;2.10;99.90;;;;;;5075743;28;20166;-67
2022/01/15 06:30:48;;;;;;;14.20;10.97;;;2.00;99.90;;;;;;5073985;28;20191;-67
2022/01/15 06:33:14;;;;;;;13.33;10.37;;;2.00;99.90;;;;;;5073912;28;20311;-66
2022/01/15 06:35:41;;;;;;;13.20;10.50;;;2.00;99.90;;;;;;5075171;28;20685;-67
2022/01/15 06:38:07;;;;;;;15.33;11.93;;;2.00;99.90;;;;;;5073726;28;20201;-67
2022/01/15 06:40:33;;;;;;;16.37;11.33;;;2.00;99.90;;;;;;5075148;28;20163;-67
2022/01/15 06:43:00;;;;;;;16.10;11.20;;;1.90;99.90;;;;;;5075073;28;20178;-66
2022/01/15 06:45:30;;;;;;;15.57;11.73;;;1.90;99.90;;;;;;5075272;28;20712;-67
2022/01/15 06:47:56;;;;;;;19.37;11.63;;;1.90;99.90;;;;;;5075445;28;20189;-67
2022/01/15 06:50:27;;;;;;;17.30;12.40;;;1.90;99.90;;;;;;5075512;28;20188;-67
2022/01/15 06:52:53;;;;;;;19.73;12.47;;;1.90;99.90;;;;;;5075115;28;20162;-67
2022/01/15 06:55:19;;;;;;;18.40;12.33;;;1.90;99.90;;;;;;5075240;28;20584;-67
2022/01/15 06:57:45;;;;;;;21.43;13.03;;;1.90;99.90;;;;;;5075095;28;20201;-66
2022/01/15 07:00:11;;;;;;;22.30;13.20;;;1.90;99.90;;;;;;5074799;28;20170;-66
2022/01/15 07:02:38;;;;;;;20.33;13.60;;;1.90;99.90;;;;;;5074735;28;20158;-66
2022/01/15 07:05:05;;;;;;;21.80;13.43;;;1.90;99.90;;;;;;5075009;28;20277;-66
2022/01/15 07:07:30;;;;;;;20.43;13.87;;;1.90;99.90;;;;;;5074679;28;20209;-66
2022/01/15 07:09:56;;;;;;;21.23;13.87;;;1.90;99.90;;;;;;5074652;28;20685;-66
2022/01/15 07:12:22;;;;;;;18.47;13.27;;;1.90;99.90;;;;;;5075133;28;20177;-66
2022/01/15 07:14:47;;;;;;;20.30;13.13;;;1.90;99.90;;;;;;5073144;28;20266;-66
2022/01/15 07:17:13;;;;;;;19.67;13.27;;;1.90;99.90;;;;;;5074698;28;20166;-66
2022/01/15 07:19:39;;;;;;;18.63;12.70;;;1.90;99.90;;;;;;5073074;28;20178;-66
2022/01/15 07:22:06;;;;;;;18.70;12.50;;;1.90;99.90;;;;;;5074915;28;20230;-66
2022/01/15 07:24:32;;;;;;;22.70;13.53;;;1.90;99.90;;;;;;5074658;28;20220;-66
2022/01/15 07:26:58;;;;;;;17.37;12.27;;;1.90;99.90;;;;;;5074059;28;20713;-66
2022/01/15 07:29:24;;;;;;;20.13;13.00;;;1.90;99.90;;;;;;5074401;28;20210;-66
2022/01/15 07:31:52;;;;;;;18.57;13.40;;;2.00;99.90;;;;;;5073252;28;20201;-66
2022/01/15 07:34:19;;;;;;;21.23;13.40;;;2.00;99.90;;;;;;5074260;28;20201;-66
2022/01/15 07:36:50;;;;;;;19.70;12.60;;;2.00;99.90;;;;;;5074084;28;20174;-66
2022/01/15 07:39:16;;;;;;;23.27;14.23;;;2.00;99.90;;;;;;5073936;28;20190;-66
2022/01/15 07:41:42;;;;;;;20.87;12.80;;;1.90;99.90;;;;;;5074034;28;20173;-66
2022/01/15 07:44:09;;;;;;;15.87;10.83;;;1.90;99.90;;;;;;5073818;28;20205;-66
2022/01/15 07:46:35;;;;;;;14.93;11.30;;;1.90;99.90;;;;;;5073906;28;20647;-66
2022/01/15 07:49:01;;;;;;;13.40;10.93;;;1.90;99.90;;;;;;5073833;28;20188;-66
2022/01/15 07:51:27;;;;;;;16.80;11.30;;;2.00;99.90;;;;;;5073823;28;20635;-66
2022/01/15 07:53:53;;;;;;;16.83;11.67;;;1.90;99.90;;;;;;5074255;28;20671;-66
2022/01/15 07:56:19;;;;;;;22.63;12.63;;;1.90;99.90;;;;;;5073725;28;20186;-65
2022/01/15 07:58:44;;;;;;;22.73;12.17;;;1.90;99.90;;;;;;5073713;28;20197;-66
2022/01/15 08:01:10;;;;;;;21.73;13.00;;;1.80;99.90;;;;;;5073688;28;20170;-66
2022/01/15 08:03:36;;;;;;;17.53;11.93;;;1.90;99.90;;;;;;5073702;28;20178;-66
2022/01/15 08:06:02;;;;;;;18.77;12.93;;;1.90;99.90;;;;;;5073185;28;20198;-66
2022/01/15 08:08:28;;;;;;;22.30;13.30;;;1.90;99.90;;;;;;5073642;28;20185;-66
2022/01/15 08:10:54;;;;;;;21.90;12.43;;;1.90;99.90;;;;;;5072558;28;20177;-66
2022/01/15 08:13:19;;;;;;;23.20;13.37;;;1.90;99.90;;;;;;5072345;28;20530;-66
2022/01/15 08:15:45;;;;;;;22.83;13.17;;;1.90;99.90;;;;;;5072218;28;20228;-64
2022/01/15 08:18:11;;;;;;;19.87;12.80;;;1.90;99.90;;;;;;5073661;28;20216;-64
2022/01/15 08:20:37;;;;;;;20.93;12.53;;;1.90;99.90;;;;;;5073445;28;20204;-64
2022/01/15 08:23:02;;;;;;;18.67;13.33;;;1.90;99.90;;;;;;5073692;28;20173;-64
2022/01/15 08:25:28;;;;;;;22.33;13.63;;;1.90;99.90;;;;;;5073863;28;20204;-66
2022/01/15 08:27:55;;;;;;;19.93;13.63;;;1.90;99.90;;;;;;5073250;28;20264;-66
2022/01/15 08:30:22;;;;;;;17.70;12.10;;;1.90;99.90;;;;;;5073579;28;20178;-65
2022/01/15 08:32:48;;;;;;;15.97;12.17;;;1.90;99.90;;;;;;5073251;28;20174;-65
2022/01/15 08:35:13;;;;;;;22.97;14.27;;;1.90;99.90;;;;;;5073162;28;20584;-65
2022/01/15 08:37:40;;;;;;;21.73;13.50;;;1.90;99.90;;;;;;5071855;28;20293;-65
2022/01/15 08:40:08;;;;;;;23.87;13.63;;;2.00;99.90;;;;;;5073256;28;20288;-65
2022/01/15 08:42:35;;;;;;;18.37;12.83;;;2.00;99.90;;;;;;5076499;28;20176;-66
2022/01/15 08:45:02;;;;;;;20.33;13.83;;;2.00;99.90;;;;;;5080192;28;20563;-66
2022/01/15 08:47:27;;;;;;;26.07;13.90;;;2.00;99.90;;;;;;5078736;28;20178;-66
2022/01/15 08:49:55;;;;;;;21.87;14.17;;;2.00;99.90;;;;;;5080815;28;20181;-65
2022/01/15 08:52:21;;;;;;;22.77;13.63;;;2.00;99.90;;;;;;5080919;28;20268;-66
2022/01/15 08:54:47;;;;;;;21.13;13.73;;;2.00;99.90;;;;;;5079761;28;20200;-66
2022/01/15 08:57:13;;;;;;;17.47;12.57;;;2.00;99.90;;;;;;5080818;28;20173;-66
2022/01/15 08:59:39;;;;;;;26.17;14.23;;;2.00;99.90;;;;;;5080374;28;20162;-66
2022/01/15 09:02:05;;;;;;;21.10;13.47;;;2.00;99.90;;;;;;5080401;28;20177;-66
2022/01/15 09:04:31;;;;;;;22.47;14.13;;;2.00;99.90;;;;;;5080028;28;20271;-66
2022/01/15 09:06:57;;;;;;;22.87;13.23;;;2.00;99.90;;;;;;5079755;28;20174;-66
2022/01/15 09:09:22;;;;;;;25.30;15.30;;;2.10;99.90;;;;;;5080032;28;20276;-66
2022/01/15 09:11:49;;;;;;;27.27;14.20;;;2.10;99.90;;;;;;5080120;28;20177;-66
2022/01/15 09:14:14;;;;;;;22.47;13.60;;;2.10;99.90;;;;;;5079568;28;20653;-67
2022/01/15 09:16:41;;;;;;;26.27;13.77;;;2.10;99.90;;;;;;5080369;28;20181;-66
2022/01/15 09:19:07;;;;;;;24.40;13.63;;;2.10;99.90;;;;;;5078730;28;20201;-67
2022/01/15 09:21:33;;;;;;;23.83;13.73;;;2.10;99.90;;;;;;5078536;28;20548;-66
2022/01/15 09:23:59;;;;;;;21.97;14.10;;;2.10;99.90;;;;;;5079773;28;20223;-66
2022/01/15 09:26:47;;;;;;;21.67;14.13;;;2.10;99.90;;;;;;5079573;28;20587;-67
2022/01/15 09:31:57;;;;;;;20.10;13.47;;;2.20;99.90;;;;;;5080238;28;20231;-66
2022/01/15 09:34:23;;;;;;;22.10;13.37;;;2.20;99.90;;;;;;5078318;28;20263;-67
2022/01/15 09:36:48;;;;;;;21.47;13.20;;;2.10;99.90;;;;;;5079527;28;20173;-67
2022/01/15 09:39:14;;;;;;;20.33;12.47;;;2.20;99.90;;;;;;5079321;28;20202;-66
2022/01/15 09:41:46;;;;;;;20.20;13.67;;;2.20;99.90;;;;;;5079624;28;20185;-67
2022/01/15 09:44:17;;;;;;;21.83;12.77;;;2.20;99.90;;;;;;5079763;28;20193;-66
2022/01/15 09:46:45;;;;;;;20.37;12.40;;;2.20;99.90;;;;;;5080212;28;20164;-66
2022/01/15 09:49:14;;;;;;;18.97;13.07;;;2.20;99.90;;;;;;5079797;28;20235;-66
2022/01/15 09:51:40;;;;;;;20.20;13.00;;;2.20;99.90;;;;;;5079395;28;20594;-66
2022/01/15 09:54:06;;;;;;;20.37;13.10;;;2.20;99.90;;;;;;5077016;28;20630;-66
2022/01/15 09:56:33;;;;;;;16.13;11.90;;;2.20;99.90;;;;;;5077988;28;20672;-67
2022/01/15 09:59:02;;;;;;;22.73;14.00;;;2.20;99.90;;;;;;5076227;28;20573;-66
2022/01/15 10:01:31;;;;;;;19.47;12.40;;;2.20;99.90;;;;;;5074887;28;20184;-67
2022/01/15 10:03:58;;;;;;;20.57;12.33;;;2.20;99.90;;;;;;5075913;28;20249;-66
2022/01/15 10:06:24;;;;;;;19.87;12.60;;;2.20;99.90;;;;;;5076083;28;20234;-66
2022/01/15 10:09:08;;;;;;;20.33;13.37;;;2.20;99.90;;;;;;5074784;28;20173;-66
2022/01/15 10:11:46;;;;;;;19.60;13.40;;;2.30;99.90;;;;;;5076465;28;20174;-66
2022/01/15 10:14:38;;;;;;;18.50;12.47;;;2.30;99.90;;;;;;5074770;28;20344;-66
2022/01/15 10:17:29;;;;;;;30.77;14.03;;;2.30;99.90;;;;;;5076435;28;20185;-66
2022/01/15 10:19:58;;;;;;;23.77;14.47;;;2.10;99.90;;;;;;5074648;28;20170;-66
2022/01/15 10:22:26;;;;;;;26.20;15.27;;;2.10;99.90;;;;;;5076682;28;20166;-66
2022/01/15 10:24:58;;;;;;;30.67;15.40;;;1.90;99.90;;;;;;5077531;28;20277;-66
2022/01/15 10:27:35;;;;;;;19.93;13.27;;;1.90;99.90;;;;;;5077073;28;20177;-66
2022/01/15 10:30:14;;;;;;;18.30;12.93;;;2.00;99.90;;;;;;5077393;28;20158;-66
2022/01/15 10:32:52;;;;;;;19.50;12.87;;;2.10;99.90;;;;;;5076495;28;20165;-66
2022/01/15 10:35:18;;;;;;;23.97;14.40;;;2.20;99.90;;;;;;5075754;28;20186;-66
2022/01/15 10:38:09;;;;;;;20.83;14.20;;;2.30;99.90;;;;;;5074132;28;20222;-66
2022/01/15 10:40:42;;;;;;;20.33;13.90;;;2.40;99.90;;;;;;5076376;28;20230;-66
2022/01/15 10:43:08;;;;;;;19.63;13.47;;;2.40;99.90;;;;;;5075344;28;20174;-66
2022/01/15 10:45:35;;;;;;;22.30;13.73;;;2.50;99.90;;;;;;5074060;28;20198;-66
2022/01/15 10:48:04;;;;;;;20.10;13.90;;;2.50;99.90;;;;;;5074541;28;20182;-66
2022/01/15 10:50:37;;;;;;;17.40;12.87;;;2.50;99.90;;;;;;5073792;28;20178;-66
2022/01/15 10:53:11;;;;;;;19.83;12.33;;;2.50;99.90;;;;;;5075488;28;20513;-66
2022/01/15 10:55:39;;;;;;;19.90;13.50;;;2.50;99.90;;;;;;5073609;28;20198;-66
2022/01/15 10:58:07;;;;;;;20.53;13.73;;;2.50;99.90;;;;;;5075199;28;20202;-66
2022/01/15 11:00:36;;;;;;;22.30;13.43;;;2.50;99.90;;;;;;5074832;28;20181;-66
2022/01/15 11:03:05;;;;;;;19.00;12.90;;;2.50;99.90;;;;;;5074830;28;20173;-66
2022/01/15 11:05:36;;;;;;;21.17;12.37;;;2.60;99.90;;;;;;5074576;28;20190;-66
2022/01/15 11:08:28;;;;;;;16.30;12.00;;;2.60;99.90;;;;;;5073405;28;20197;-66
2022/01/15 11:11:00;;;;;;;17.73;12.43;;;2.60;99.90;;;;;;5074723;28;20227;-66
2022/01/15 11:13:37;;;;;;;19.27;12.87;;;2.80;99.90;;;;;;5073890;28;20162;-66
2022/01/15 11:16:05;;;;;;;16.80;12.43;;;2.80;99.90;;;;;;5074762;28;20621;-66
2022/01/15 11:18:54;;;;;;;20.20;14.27;;;2.70;99.90;;;;;;5073236;28;20228;-66
2022/01/15 11:21:21;;;;;;;16.00;11.50;;;2.70;99.90;;;;;;5074497;28;20152;-66
2022/01/15 11:23:49;;;;;;;17.27;11.30;;;2.80;99.90;;;;;;5074292;28;20176;-66
2022/01/15 11:26:20;;;;;;;13.87;10.73;;;2.70;99.90;;;;;;5074182;28;20215;-66
2022/01/15 11:28:46;;;;;;;12.47;11.00;;;2.80;99.90;;;;;;5073085;28;20180;-66
2022/01/15 11:31:25;;;;;;;12.70;10.90;;;2.80;99.90;;;;;;5074277;28;20178;-66
2022/01/15 11:33:54;;;;;;;13.20;10.43;;;2.60;99.90;;;;;;5074544;28;20162;-66
2022/01/15 11:36:33;;;;;;;14.23;10.70;;;2.70;99.90;;;;;;5074180;28;20185;-66
2022/01/15 11:39:04;;;;;;;11.73;10.00;;;2.70;99.90;;;;;;5074540;28;20193;-66
2022/01/15 11:41:30;;;;;;;14.00;10.50;;;2.80;99.90;;;;;;5072897;28;20169;-66
2022/01/15 11:44:03;;;;;;;14.33;10.57;;;2.80;99.90;;;;;;5073945;28;20170;-66
2022/01/15 11:46:29;;;;;;;11.10;9.67;;;2.80;99.90;;;;;;5074005;28;20177;-66
2022/01/15 11:49:26;;;;;;;13.13;9.97;;;2.90;99.90;;;;;;5072708;28;20647;-66
2022/01/15 11:51:53;;;;;;;12.20;9.83;;;2.90;99.90;;;;;;5072566;28;20204;-66
2022/01/15 11:54:19;;;;;;;13.20;10.20;;;3.00;99.90;;;;;;5073856;28;20537;-66
2022/01/15 11:56:47;;;;;;;12.93;10.50;;;3.00;99.90;;;;;;5073783;28;20646;-66
2022/01/15 11:59:27;;;;;;;13.37;10.37;;;3.00;99.90;;;;;;5073813;28;20221;-66
2022/01/15 12:02:04;;;;;;;12.27;10.43;;;3.10;99.90;;;;;;5072512;28;20264;-66
2022/01/15 12:04:36;;;;;;;20.67;11.73;;;3.10;99.90;;;;;;5074202;28;20212;-66
2022/01/15 12:07:05;;;;;;;14.23;10.57;;;2.90;99.90;;;;;;5072800;28;20225;-66
2022/01/15 12:09:44;;;;;;;14.03;10.50;;;3.00;99.90;;;;;;5073573;28;20184;-66
2022/01/15 12:12:19;;;;;;;14.07;11.00;;;3.00;99.90;;;;;;5073742;28;20189;-66
2022/01/15 12:14:50;;;;;;;14.40;11.40;;;3.00;99.90;;;;;;5073458;28;20571;-66
2022/01/15 12:17:22;;;;;;;16.07;11.00;;;3.00;99.90;;;;;;5071394;28;20672;-66
2022/01/15 12:19:48;;;;;;;13.33;10.73;;;3.00;99.90;;;;;;5072029;28;20176;-68
2022/01/15 12:22:37;;;;;;;19.10;11.93;;;3.00;99.90;;;;;;5073567;28;20174;-66
2022/01/15 12:25:08;;;;;;;20.80;12.03;;;2.90;99.90;;;;;;5073655;28;20198;-66
2022/01/15 12:27:35;;;;;;;28.40;11.20;;;2.80;99.90;;;;;;5073371;28;20563;-67
2022/01/15 12:30:14;;;;;;;15.57;11.60;;;2.70;99.90;;;;;;5073464;28;20154;-67
2022/01/15 12:32:42;;;;;;;19.80;11.57;;;2.70;99.90;;;;;;5074496;28;20154;-63
2022/01/15 12:35:15;;;;;;;14.90;11.40;;;2.80;99.90;;;;;;5073777;28;20234;-65
2022/01/15 12:38:07;;;;;;;16.73;11.47;;;2.80;99.90;;;;;;5074274;28;20587;-65
2022/01/15 12:40:40;;;;;;;18.83;10.63;;;2.80;99.90;;;;;;5073450;28;20174;-65
2022/01/15 12:43:15;;;;;;;12.90;10.77;;;2.90;99.90;;;;;;5074407;28;20233;-66
2022/01/15 12:45:41;;;;;;;16.87;10.57;;;2.90;99.90;;;;;;5073671;28;20190;-65
2022/01/15 12:48:10;;;;;;;15.53;11.50;;;3.00;99.90;;;;;;5073724;28;20184;-65
2022/01/15 12:50:53;;;;;;;15.40;11.53;;;3.00;99.90;;;;;;5074001;28;20201;-65
2022/01/15 12:53:31;;;;;;;15.87;11.83;;;3.00;99.90;;;;;;5073524;28;20523;-65
2022/01/15 12:55:57;;;;;;;16.13;11.20;;;3.00;99.90;;;;;;5071707;28;20297;-65
2022/01/15 12:58:26;;;;;;;14.97;10.57;;;3.00;99.90;;;;;;5072002;28;20221;-65
2022/01/15 13:00:53;;;;;;;14.47;10.53;;;3.00;99.90;;;;;;5073255;28;20158;-65
2022/01/15 13:03:24;;;;;;;18.20;12.27;;;3.10;99.90;;;;;;5072937;28;20181;-65